Hauptseite
METAR-TAF:

METAR-TAF

Flughäfen :

Flughafen Rabat-Salé

Rabat, Marokko

Breite: 34-03N, Länge: 006-46W, Höhe: 84 m

Beobachtung

Neuester Wetterbericht von vor 34 Minuten, um 00:30 UTC
Wind 4 kt aus Nordost
Temperatur 10°C
Luftfeuchtigkeit 93%
Luftdruck 1027 hPa
Sichtweite: 8000 m

METAR: GMME 170030Z 04004KT 8000 R21/0450VP2000U NSC 10/09 Q1027 NOSIG

Zeit: 01:04 (01:04 UTC)

Prognose

Neuester Wetterbericht von vor 2 Stunden und 4 Minuten, um 23:00 UTC
Gültige Prognose vom 17 um 00 UTC bis 18 um 06 UTC
Wind 5 kt aus Ost
Sichtweite: 8000 m
Wahrscheinlichkeit 30% :
Zeitweise
vom 17 um 04 UTC bis 17 um 07 UTC
Sichtweite: 4000 m
Aufgelockert bewölkt in der Höhe von 1000 ft
feuchter Dunst
Zeitweise
vom 17 um 10 UTC bis 17 um 18 UTC
Wind 10 kt aus Nord

TAF: GMME 162300Z 1700/1806 08005KT 8000 NSC PROB30 TEMPO 1704/1707 4000 BR SCT010 TEMPO 1710/1718 36010KT

Wetterbeobachtungen und Prognosen von mehr als 4000 Flughäfen (METAR und TAF Bericht).

Die verfügbaren Stationen werden durch gelbe und rote Markierungen auf der Karte dargestellt.

Führen Sie die Maus auf sie, um den Namen der Station zu sehen.

Darauf klicken, um die Beobachtung von Wetterbeobachtungen und Prognosen zu sehen.

Um die Karte zu ändern : klicken Sie auf den grünen Tasten mit einem schwarzen Kreuz Zum Vergrößern, auf den grünen Button mit einem Gedankenstrich zu verkleinern, oder auf die grünen Pfeile für benachbarte Karten.


METAR-TAF: